Time;durP1;ratioP1;P1;durP2;ratioP2;P2;SDS_P1;SDS_P2;PMS_P1;PMS_P2;Temp;Humidity;BMP_temperature;BMP_pressure;BME280_temperature;BME280_humidity;BME280_pressure;Samples;Min_cycle;Max_cycle;Signal;HPM_P1;HPM_P2
2022/09/17 00:00:54;;;;;;;16.48;2.00;;;13.50;99.90;;;;;;5096715;28;20039;-73
2022/09/17 00:03:19;;;;;;;13.95;1.65;;;13.50;99.90;;;;;;5095318;28;20040;-74
2022/09/17 00:05:45;;;;;;;19.73;2.30;;;13.60;99.90;;;;;;5095748;28;20089;-73
2022/09/17 00:08:13;;;;;;;20.42;2.15;;;13.40;99.90;;;;;;5095459;28;20040;-73
2022/09/17 00:10:41;;;;;;;21.17;2.88;;;13.30;99.90;;;;;;5112529;28;20353;-73
2022/09/17 00:13:08;;;;;;;19.00;2.50;;;13.20;99.90;;;;;;5079186;28;20051;-74
2022/09/17 00:15:42;;;;;;;17.27;2.30;;;13.30;99.90;;;;;;5099296;28;20044;-74
2022/09/17 00:18:08;;;;;;;27.70;2.38;;;13.20;99.90;;;;;;5099571;28;20333;-74
2022/09/17 00:20:41;;;;;;;14.40;1.98;;;13.10;99.90;;;;;;5100432;28;20036;-74
2022/09/17 00:23:08;;;;;;;17.05;1.85;;;13.10;99.90;;;;;;5100518;28;20460;-73
2022/09/17 00:25:37;;;;;;;13.10;1.42;;;13.30;99.90;;;;;;5100196;28;20425;-73
2022/09/17 00:28:03;;;;;;;15.73;2.33;;;13.20;99.90;;;;;;5100443;28;20051;-74
2022/09/17 00:30:29;;;;;;;17.13;1.80;;;13.10;99.90;;;;;;5099097;28;20044;-73
2022/09/17 00:32:56;;;;;;;10.68;1.60;;;13.00;99.90;;;;;;5099336;28;20040;-73
2022/09/17 00:35:23;;;;;;;12.25;1.67;;;12.70;99.90;;;;;;5099394;28;20044;-73
2022/09/17 00:37:49;;;;;;;13.85;1.80;;;12.70;99.90;;;;;;5099219;28;20036;-73
2022/09/17 00:40:15;;;;;;;11.52;1.15;;;12.50;99.90;;;;;;5099625;28;20036;-74
2022/09/17 00:42:40;;;;;;;10.43;2.05;;;12.50;99.90;;;;;;5098855;28;20047;-73
2022/09/17 00:45:08;;;;;;;13.35;1.70;;;12.60;99.90;;;;;;5098987;28;20325;-74
2022/09/17 00:47:38;;;;;;;6.55;1.27;;;12.80;99.90;;;;;;5098708;28;20040;-74
2022/09/17 00:50:12;;;;;;;14.55;1.83;;;12.90;99.90;;;;;;5098660;28;20051;-74
2022/09/17 00:52:43;;;;;;;17.27;1.80;;;13.10;99.90;;;;;;5132781;27;20048;-74
2022/09/17 00:55:16;;;;;;;10.10;1.58;;;13.20;99.90;;;;;;5099902;28;20028;-74
2022/09/17 00:57:44;;;;;;;18.27;2.33;;;13.30;99.90;;;;;;5098710;28;20044;-74
2022/09/17 01:00:12;;;;;;;18.25;2.67;;;13.30;99.90;;;;;;5099605;28;20050;-74
2022/09/17 01:02:39;;;;;;;18.48;2.67;;;13.20;99.90;;;;;;5098799;28;20075;-74
2022/09/17 01:05:06;;;;;;;14.82;1.90;;;13.20;99.90;;;;;;5099556;28;20097;-74
2022/09/17 01:08:01;;;;;;;18.27;2.05;;;13.20;99.90;;;;;;5098962;28;20322;-74
2022/09/17 01:10:35;;;;;;;8.93;1.63;;;13.40;99.90;;;;;;5097929;28;20127;-74
2022/09/17 01:13:08;;;;;;;12.23;1.90;;;13.40;99.90;;;;;;5081473;28;20124;-74
2022/09/17 01:15:38;;;;;;;12.75;1.60;;;13.40;99.90;;;;;;5099265;28;20036;-75
2022/09/17 01:18:35;;;;;;;15.07;1.85;;;13.30;99.90;;;;;;5098283;28;20433;-74
2022/09/17 01:21:01;;;;;;;20.65;2.08;;;13.30;99.90;;;;;;5132813;27;20051;-74
2022/09/17 01:23:48;;;;;;;15.80;2.33;;;13.30;99.90;;;;;;5098106;28;20044;-74
2022/09/17 01:26:15;;;;;;;24.50;2.75;;;13.20;99.90;;;;;;5098355;28;20047;-74
2022/09/17 01:29:06;;;;;;;15.65;1.73;;;13.20;99.90;;;;;;5098158;28;20044;-74
2022/09/17 01:31:46;;;;;;;19.42;2.00;;;13.20;99.90;;;;;;5097955;28;20079;-74
2022/09/17 01:34:29;;;;;;;11.30;2.13;;;13.20;99.90;;;;;;5097924;28;20439;-75
2022/09/17 01:37:13;;;;;;;8.88;1.67;;;13.00;99.90;;;;;;5099305;28;20380;-74
2022/09/17 01:39:42;;;;;;;9.85;1.50;;;13.10;99.90;;;;;;5097365;28;20043;-74
2022/09/17 01:42:26;;;;;;;13.85;1.80;;;13.00;99.90;;;;;;5081149;28;20052;-74
2022/09/17 01:44:57;;;;;;;21.27;2.15;;;13.10;99.90;;;;;;5097439;28;20047;-74
2022/09/17 01:47:48;;;;;;;13.48;1.80;;;13.00;99.90;;;;;;5098920;28;20048;-74
2022/09/17 01:50:24;;;;;;;12.43;1.80;;;13.00;99.90;;;;;;5099047;28;20066;-74
2022/09/17 01:52:53;;;;;;;14.73;1.83;;;13.00;99.90;;;;;;5098814;28;20447;-74
2022/09/17 01:55:21;;;;;;;10.93;1.80;;;12.90;99.90;;;;;;5097886;28;20062;-74
2022/09/17 01:57:58;;;;;;;11.30;1.80;;;12.90;99.90;;;;;;5098469;28;20567;-74
2022/09/17 02:00:23;;;;;;;15.40;1.60;;;12.60;99.90;;;;;;5098675;28;20032;-74
2022/09/17 02:02:54;;;;;;;14.88;1.80;;;12.60;99.90;;;;;;5097332;28;20036;-74
2022/09/17 02:05:38;;;;;;;11.00;1.10;;;12.60;99.90;;;;;;5098546;28;20036;-74
2022/09/17 02:08:35;;;;;;;13.40;1.73;;;12.60;99.90;;;;;;5080476;28;20040;-74
2022/09/17 02:11:10;;;;;;;12.52;1.52;;;12.60;99.90;;;;;;5098121;28;20071;-74
2022/09/17 02:13:57;;;;;;;12.20;1.48;;;12.50;99.90;;;;;;5098138;28;20050;-74
2022/09/17 02:16:29;;;;;;;10.73;1.35;;;12.40;99.90;;;;;;5098073;28;20032;-74
2022/09/17 02:19:00;;;;;;;10.38;1.40;;;12.40;99.90;;;;;;5098191;28;20084;-74
2022/09/17 02:21:37;;;;;;;10.00;1.38;;;12.40;99.90;;;;;;5098358;28;20039;-73
2022/09/17 02:24:37;;;;;;;13.13;1.50;;;12.30;99.90;;;;;;5096945;28;20097;-73
2022/09/17 02:27:09;;;;;;;11.98;1.20;;;12.30;99.90;;;;;;5073611;28;20147;-74
2022/09/17 02:29:38;;;;;;;10.75;1.30;;;12.30;99.90;;;;;;5080024;28;20052;-74
2022/09/17 02:32:04;;;;;;;18.77;1.80;;;12.30;99.90;;;;;;5097130;28;20433;-74
2022/09/17 02:34:30;;;;;;;11.85;1.38;;;12.40;99.90;;;;;;5098117;28;20064;-74
2022/09/17 02:37:00;;;;;;;19.98;1.98;;;12.20;99.90;;;;;;5097606;28;20075;-74
2022/09/17 02:39:26;;;;;;;24.15;2.70;;;12.00;99.90;;;;;;5096170;28;20046;-75
2022/09/17 02:42:07;;;;;;;16.38;1.92;;;11.90;99.90;;;;;;5096518;28;20064;-73
2022/09/17 02:44:42;;;;;;;22.35;1.88;;;11.90;99.90;;;;;;5096491;28;20119;-73
2022/09/17 02:47:25;;;;;;;14.15;1.80;;;12.00;99.90;;;;;;5096529;28;20135;-73
2022/09/17 02:50:23;;;;;;;15.18;1.50;;;12.10;99.90;;;;;;5097333;28;20487;-74
2022/09/17 02:53:03;;;;;;;11.35;2.00;;;12.20;99.90;;;;;;5075782;28;20496;-73
2022/09/17 02:55:34;;;;;;;23.05;2.42;;;12.30;99.90;;;;;;5096393;28;20081;-74
2022/09/17 02:58:11;;;;;;;22.05;2.42;;;12.40;99.90;;;;;;5096332;28;20072;-73
2022/09/17 03:00:38;;;;;;;18.55;2.22;;;12.40;99.90;;;;;;5130684;27;20078;-74
2022/09/17 03:03:16;;;;;;;24.20;1.50;;;12.30;99.90;;;;;;5097471;28;20036;-73
2022/09/17 03:05:44;;;;;;;15.25;1.42;;;12.30;99.90;;;;;;5096229;28;20115;-74
2022/09/17 03:08:13;;;;;;;19.63;2.35;;;12.30;99.90;;;;;;5095960;28;20079;-74
2022/09/17 03:10:39;;;;;;;17.15;2.42;;;12.50;99.90;;;;;;5096640;28;20032;-74
2022/09/17 03:13:05;;;;;;;22.80;2.33;;;12.40;99.90;;;;;;5097065;28;20418;-74
2022/09/17 03:15:31;;;;;;;9.32;1.25;;;12.40;99.90;;;;;;5095910;28;20044;-74
2022/09/17 03:17:56;;;;;;;19.70;2.08;;;12.40;99.90;;;;;;5097232;28;20049;-74
2022/09/17 03:20:22;;;;;;;11.13;1.40;;;12.50;99.90;;;;;;5095793;28;20040;-73
2022/09/17 03:22:50;;;;;;;14.70;1.90;;;12.50;99.90;;;;;;5095811;28;20119;-74
2022/09/17 03:25:15;;;;;;;10.60;1.23;;;12.60;99.90;;;;;;5096908;28;20039;-74
2022/09/17 03:27:41;;;;;;;13.15;1.63;;;12.60;99.90;;;;;;5095757;28;20036;-74
2022/09/17 03:30:07;;;;;;;11.68;1.50;;;12.60;99.90;;;;;;5062276;28;20048;-73
2022/09/17 03:32:32;;;;;;;13.13;1.70;;;12.50;99.90;;;;;;5095801;28;20447;-74
2022/09/17 03:34:58;;;;;;;18.98;2.13;;;12.50;99.90;;;;;;5096026;28;20078;-74
2022/09/17 03:37:24;;;;;;;21.60;2.08;;;12.50;99.90;;;;;;5096652;28;20032;-74
2022/09/17 03:39:50;;;;;;;18.77;2.03;;;12.40;99.90;;;;;;5095274;28;20120;-73
2022/09/17 03:42:15;;;;;;;18.40;1.73;;;12.10;99.90;;;;;;5096471;28;20044;-74
2022/09/17 03:44:44;;;;;;;22.52;1.77;;;11.90;99.90;;;;;;5096809;28;20039;-73
2022/09/17 03:47:11;;;;;;;15.05;1.80;;;12.00;99.90;;;;;;5096686;28;20040;-73
2022/09/17 03:49:36;;;;;;;13.57;1.58;;;12.00;99.90;;;;;;5095271;28;20059;-73
2022/09/17 03:52:02;;;;;;;13.40;1.77;;;12.10;99.90;;;;;;5096463;28;20417;-73
2022/09/17 03:54:28;;;;;;;16.90;1.58;;;12.00;99.90;;;;;;5096644;28;20044;-73
2022/09/17 03:56:53;;;;;;;15.27;1.92;;;12.00;99.90;;;;;;5112847;28;20040;-73
2022/09/17 03:59:19;;;;;;;11.52;2.00;;;12.10;99.90;;;;;;5095451;28;20046;-73
2022/09/17 04:01:45;;;;;;;15.77;1.48;;;12.20;99.90;;;;;;5095644;28;20048;-73
2022/09/17 04:04:10;;;;;;;18.00;2.05;;;12.30;99.90;;;;;;5095381;28;20040;-73
2022/09/17 04:06:36;;;;;;;17.23;1.42;;;12.40;99.90;;;;;;5095450;28;20055;-73
2022/09/17 04:09:03;;;;;;;6.88;1.20;;;12.40;99.90;;;;;;5095988;28;20047;-74
2022/09/17 04:11:29;;;;;;;18.27;1.70;;;12.40;99.90;;;;;;5095598;28;20093;-73
2022/09/17 04:13:55;;;;;;;21.33;1.88;;;12.30;99.90;;;;;;5096315;28;20044;-74
2022/09/17 04:16:21;;;;;;;12.93;1.30;;;12.30;99.90;;;;;;5078677;28;20036;-73
2022/09/17 04:18:47;;;;;;;16.85;1.55;;;12.20;99.90;;;;;;5095603;28;20306;-73
2022/09/17 04:21:12;;;;;;;9.57;1.50;;;12.20;99.90;;;;;;5096162;28;20444;-73
2022/09/17 04:23:38;;;;;;;9.07;1.25;;;12.20;99.90;;;;;;5095565;28;20429;-73
2022/09/17 04:26:04;;;;;;;7.07;1.30;;;12.30;99.90;;;;;;5095296;28;20044;-73
2022/09/17 04:28:29;;;;;;;8.25;1.25;;;12.30;99.90;;;;;;5096197;28;20046;-74
2022/09/17 04:30:56;;;;;;;10.00;1.02;;;12.20;99.90;;;;;;5078698;28;20090;-73
2022/09/17 04:33:22;;;;;;;9.45;1.42;;;12.20;99.90;;;;;;5095325;28;20135;-73
2022/09/17 04:35:48;;;;;;;9.88;0.98;;;12.20;99.90;;;;;;5096348;28;20329;-74
2022/09/17 04:38:17;;;;;;;7.85;1.10;;;12.10;99.90;;;;;;5096135;28;20043;-74
2022/09/17 04:40:43;;;;;;;7.63;0.90;;;12.10;99.90;;;;;;5094679;28;20044;-74
2022/09/17 04:43:09;;;;;;;11.00;1.67;;;12.10;99.90;;;;;;5095907;28;20048;-73
2022/09/17 04:45:35;;;;;;;10.05;1.27;;;12.00;99.90;;;;;;5096222;28;20040;-73
2022/09/17 04:48:01;;;;;;;6.95;1.02;;;12.00;99.90;;;;;;5096222;28;20063;-73
2022/09/17 04:50:27;;;;;;;9.82;1.38;;;12.00;99.90;;;;;;5096095;28;20040;-73
2022/09/17 04:52:53;;;;;;;11.55;1.50;;;11.90;99.90;;;;;;5096212;28;20496;-73
2022/09/17 04:55:18;;;;;;;7.85;0.82;;;11.90;99.90;;;;;;5078300;28;20125;-73
2022/09/17 04:57:52;;;;;;;12.57;1.33;;;11.90;99.90;;;;;;5096003;28;20318;-73
2022/09/17 05:00:19;;;;;;;10.13;0.98;;;11.70;99.90;;;;;;5095914;28;20052;-73
2022/09/17 05:02:47;;;;;;;13.40;1.48;;;11.80;99.90;;;;;;5098573;28;20448;-73
2022/09/17 05:05:14;;;;;;;7.68;1.08;;;11.70;99.90;;;;;;5099626;28;20043;-73
2022/09/17 05:07:40;;;;;;;6.55;0.80;;;11.70;99.90;;;;;;5099634;28;20109;-73
2022/09/17 05:10:07;;;;;;;12.30;1.48;;;11.70;99.90;;;;;;5098278;28;20075;-73
2022/09/17 05:12:33;;;;;;;7.85;1.20;;;11.70;99.90;;;;;;5099591;28;20373;-74
2022/09/17 05:14:59;;;;;;;10.77;1.23;;;11.70;99.90;;;;;;5099684;28;20039;-73
2022/09/17 05:17:25;;;;;;;10.70;0.90;;;11.60;99.90;;;;;;5098308;28;20306;-73
2022/09/17 05:19:52;;;;;;;10.55;1.00;;;11.60;99.90;;;;;;5099627;28;20388;-73
2022/09/17 05:22:18;;;;;;;9.57;1.33;;;11.60;99.90;;;;;;5099274;28;20051;-74
2022/09/17 05:24:44;;;;;;;10.57;1.17;;;11.60;99.90;;;;;;5098155;28;20051;-73
2022/09/17 05:27:10;;;;;;;6.35;1.08;;;11.70;99.90;;;;;;5099423;28;20040;-73
2022/09/17 05:29:35;;;;;;;9.95;1.00;;;11.80;99.90;;;;;;5098228;28;20349;-73
2022/09/17 05:32:02;;;;;;;21.23;1.60;;;11.80;99.90;;;;;;5099118;28;20318;-74
2022/09/17 05:34:28;;;;;;;17.60;1.73;;;11.90;99.90;;;;;;5097874;28;20047;-73
2022/09/17 05:36:53;;;;;;;12.98;1.40;;;11.90;99.90;;;;;;5099097;28;20032;-73
2022/09/17 05:39:21;;;;;;;18.75;1.85;;;11.80;99.90;;;;;;5097444;28;20069;-73
2022/09/17 05:41:47;;;;;;;19.25;2.15;;;11.70;99.90;;;;;;5097896;28;20493;-73
2022/09/17 05:44:13;;;;;;;17.77;1.85;;;11.70;99.90;;;;;;5098828;28;20080;-73
2022/09/17 05:46:38;;;;;;;17.17;2.08;;;11.80;99.90;;;;;;5097573;28;20121;-73
2022/09/17 05:49:04;;;;;;;19.80;2.00;;;11.80;99.90;;;;;;5098933;28;20062;-73
2022/09/17 05:51:33;;;;;;;15.57;1.50;;;11.70;99.90;;;;;;5098781;28;20040;-73
2022/09/17 05:53:58;;;;;;;17.58;2.50;;;11.70;99.90;;;;;;5098943;28;20036;-73
2022/09/17 05:56:24;;;;;;;11.50;1.20;;;11.80;99.90;;;;;;5098656;28;20043;-73
2022/09/17 05:58:54;;;;;;;14.10;1.70;;;11.80;99.90;;;;;;5098825;28;20040;-73
2022/09/17 06:01:19;;;;;;;13.07;1.27;;;11.80;99.90;;;;;;5081117;28;20040;-73
2022/09/17 06:03:45;;;;;;;15.00;1.40;;;11.90;99.90;;;;;;5098558;28;20062;-73
2022/09/17 06:06:10;;;;;;;15.13;1.77;;;11.90;99.90;;;;;;5097761;28;20481;-73
2022/09/17 06:08:36;;;;;;;12.65;2.25;;;12.20;99.90;;;;;;5098107;28;20460;-73
2022/09/17 06:11:06;;;;;;;16.58;1.80;;;12.30;99.90;;;;;;5096676;28;20072;-73
2022/09/17 06:13:33;;;;;;;13.15;1.45;;;12.10;99.90;;;;;;5098259;28;20032;-73
2022/09/17 06:15:59;;;;;;;20.58;2.33;;;12.20;99.90;;;;;;5097278;28;20386;-74
2022/09/17 06:18:26;;;;;;;10.57;1.58;;;12.00;99.90;;;;;;5097321;28;20044;-74
2022/09/17 06:21:01;;;;;;;12.60;1.65;;;11.70;99.90;;;;;;5097451;28;20372;-74
2022/09/17 06:23:32;;;;;;;12.07;1.00;;;11.80;99.90;;;;;;5097094;28;20048;-73
2022/09/17 06:25:58;;;;;;;11.82;1.40;;;11.60;99.90;;;;;;5098201;28;20062;-73
2022/09/17 06:28:26;;;;;;;10.90;1.00;;;11.60;99.90;;;;;;5097646;28;20366;-73
2022/09/17 06:30:53;;;;;;;14.25;1.40;;;11.40;99.90;;;;;;5097850;28;20436;-73
2022/09/17 06:33:20;;;;;;;6.38;0.82;;;11.40;99.90;;;;;;5097894;28;20040;-73
2022/09/17 06:35:46;;;;;;;10.88;1.30;;;11.40;99.90;;;;;;5096669;28;20046;-73
2022/09/17 06:38:12;;;;;;;8.23;1.58;;;11.30;99.90;;;;;;5097991;28;20043;-73
2022/09/17 06:40:37;;;;;;;13.32;1.70;;;11.30;99.90;;;;;;5113278;27;20036;-73
2022/09/17 06:43:03;;;;;;;16.65;2.22;;;11.40;99.90;;;;;;5097496;28;20322;-73
2022/09/17 06:45:29;;;;;;;18.13;1.40;;;11.50;99.90;;;;;;5096532;28;20067;-73
2022/09/17 06:47:55;;;;;;;12.02;1.75;;;11.80;99.90;;;;;;5097638;28;20040;-73
2022/09/17 06:50:21;;;;;;;11.88;1.20;;;11.70;99.90;;;;;;5096430;28;20083;-73
2022/09/17 06:52:52;;;;;;;11.93;1.33;;;11.70;99.90;;;;;;5096457;28;20066;-73
2022/09/17 06:55:18;;;;;;;9.02;1.25;;;11.60;99.90;;;;;;5097433;28;20079;-73
2022/09/17 06:57:44;;;;;;;9.77;1.33;;;11.60;99.90;;;;;;5096325;28;20054;-73
2022/09/17 07:00:11;;;;;;;12.38;1.17;;;11.70;99.90;;;;;;5130359;27;20047;-73
2022/09/17 07:02:37;;;;;;;9.18;1.20;;;11.80;99.90;;;;;;5097159;28;20448;-73
2022/09/17 07:05:03;;;;;;;10.35;1.50;;;11.60;99.90;;;;;;5097369;28;20075;-73
2022/09/17 07:07:28;;;;;;;10.63;1.00;;;11.70;99.90;;;;;;5096326;28;20055;-73
2022/09/17 07:09:54;;;;;;;7.68;0.73;;;11.80;99.90;;;;;;5096968;28;20040;-73
2022/09/17 07:12:20;;;;;;;12.10;1.13;;;11.80;99.90;;;;;;5096162;28;20473;-73
2022/09/17 07:14:49;;;;;;;10.63;1.13;;;11.80;99.90;;;;;;5096052;28;20048;-73
2022/09/17 07:17:14;;;;;;;15.18;1.05;;;11.90;99.90;;;;;;5095883;28;20043;-73
2022/09/17 07:19:40;;;;;;;14.48;1.10;;;12.10;99.90;;;;;;5095866;28;20328;-73
2022/09/17 07:22:07;;;;;;;16.65;1.60;;;12.20;99.90;;;;;;5097116;28;20066;-72
2022/09/17 07:24:32;;;;;;;14.45;2.00;;;12.20;99.90;;;;;;5095301;28;20123;-73
2022/09/17 07:26:58;;;;;;;17.05;2.22;;;12.20;99.90;;;;;;5096180;28;20110;-72
2022/09/17 07:29:27;;;;;;;13.63;1.17;;;12.30;99.90;;;;;;5095858;28;20047;-72
2022/09/17 07:31:53;;;;;;;14.88;1.33;;;12.30;99.90;;;;;;5097088;28;20123;-73
2022/09/17 07:34:19;;;;;;;14.30;1.25;;;12.20;99.90;;;;;;5095711;28;20043;-73
2022/09/17 07:36:45;;;;;;;10.68;1.25;;;12.30;99.90;;;;;;5095822;28;20105;-73
2022/09/17 07:39:12;;;;;;;14.90;1.40;;;12.40;99.90;;;;;;5095211;28;20421;-73
2022/09/17 07:41:38;;;;;;;13.55;1.20;;;12.50;99.90;;;;;;5095600;28;20043;-73
2022/09/17 07:44:06;;;;;;;12.48;1.17;;;12.70;99.90;;;;;;5095550;28;20055;-72
2022/09/17 07:46:32;;;;;;;11.02;1.17;;;12.80;99.90;;;;;;5095659;28;20493;-73
2022/09/17 07:48:58;;;;;;;10.98;1.45;;;12.90;99.90;;;;;;5096676;28;20333;-72
2022/09/17 07:51:28;;;;;;;12.35;1.42;;;13.00;99.90;;;;;;5096527;28;20111;-72
2022/09/17 07:53:56;;;;;;;15.65;1.20;;;13.20;99.90;;;;;;5095640;28;20482;-73
2022/09/17 07:56:23;;;;;;;11.75;1.13;;;13.30;99.90;;;;;;5096636;28;20032;-71
2022/09/17 07:58:49;;;;;;;13.15;1.52;;;13.30;99.90;;;;;;5096650;28;20040;-71
2022/09/17 08:01:16;;;;;;;12.50;1.20;;;13.50;99.90;;;;;;5096996;28;20069;-71
2022/09/17 08:03:42;;;;;;;15.82;1.23;;;13.60;99.90;;;;;;5095450;28;20071;-71
2022/09/17 08:06:13;;;;;;;11.23;1.10;;;13.50;99.90;;;;;;5102526;28;20070;-72
2022/09/17 08:08:40;;;;;;;5.35;0.93;;;13.50;99.90;;;;;;5096918;28;20075;-71
2022/09/17 08:11:10;;;;;;;9.63;1.20;;;13.30;99.90;;;;;;5096308;28;20036;-72
2022/09/17 08:13:36;;;;;;;16.17;1.65;;;13.20;99.90;;;;;;5096195;28;20310;-75
2022/09/17 08:16:04;;;;;;;9.27;1.02;;;13.40;99.90;;;;;;5115049;28;20136;-72
2022/09/17 08:18:30;;;;;;;10.82;1.50;;;13.50;99.90;;;;;;5116566;28;20086;-71
2022/09/17 08:21:01;;;;;;;9.10;0.82;;;13.40;99.90;;;;;;5115459;28;20051;-71
2022/09/17 08:23:27;;;;;;;11.20;1.10;;;13.10;99.90;;;;;;5116872;28;20437;-70
2022/09/17 08:25:58;;;;;;;10.68;0.98;;;13.00;99.90;;;;;;5116550;28;20425;-70
2022/09/17 08:28:25;;;;;;;12.68;1.23;;;13.00;99.90;;;;;;5116585;28;20459;-70
2022/09/17 08:30:52;;;;;;;9.43;1.10;;;12.80;99.90;;;;;;5116486;28;20061;-70
2022/09/17 08:33:18;;;;;;;14.70;1.58;;;12.70;99.90;;;;;;5116671;28;20048;-71
2022/09/17 08:35:53;;;;;;;12.07;1.98;;;12.90;99.90;;;;;;5119889;28;20127;-71
2022/09/17 08:38:20;;;;;;;7.90;1.73;;;13.10;99.90;;;;;;5120521;28;20042;-71
2022/09/17 08:41:06;;;;;;;11.27;1.20;;;13.40;99.90;;;;;;5120384;28;20035;-71
2022/09/17 08:43:38;;;;;;;9.90;1.30;;;13.60;99.90;;;;;;5088597;28;20044;-71
2022/09/17 08:46:08;;;;;;;15.35;1.77;;;13.70;99.90;;;;;;5120582;28;20039;-71
2022/09/17 08:48:58;;;;;;;10.15;1.55;;;13.70;99.90;;;;;;5120244;28;20040;-71
2022/09/17 08:51:50;;;;;;;9.98;1.10;;;13.70;99.90;;;;;;5120374;28;20047;-71
2022/09/17 08:54:41;;;;;;;10.85;1.33;;;13.70;99.90;;;;;;5120236;28;20110;-74
2022/09/17 08:57:30;;;;;;;13.13;1.35;;;13.90;99.90;;;;;;5120417;28;20036;-71
2022/09/17 09:00:21;;;;;;;12.10;1.67;;;13.90;99.90;;;;;;5075552;28;20051;-72
2022/09/17 09:03:16;;;;;;;5.32;0.88;;;13.80;99.90;;;;;;5119983;28;20096;-72
2022/09/17 09:05:48;;;;;;;4.43;0.80;;;13.60;99.90;;;;;;5105397;27;20035;-71
2022/09/17 09:08:20;;;;;;;7.28;0.68;;;13.40;99.90;;;;;;5099909;28;20070;-72
2022/09/17 09:10:51;;;;;;;11.65;0.70;;;13.30;99.90;;;;;;5098984;28;20043;-72
2022/09/17 09:13:20;;;;;;;7.63;0.93;;;13.40;99.90;;;;;;5098119;28;20050;-72
2022/09/17 09:15:55;;;;;;;9.07;0.80;;;13.60;99.90;;;;;;5099451;28;20342;-72
2022/09/17 09:18:24;;;;;;;10.18;0.80;;;13.90;99.90;;;;;;5098647;28;20028;-73
2022/09/17 09:20:54;;;;;;;8.02;1.20;;;13.90;99.90;;;;;;5107139;28;20031;-72
2022/09/17 09:23:30;;;;;;;15.65;1.00;;;13.80;99.90;;;;;;5118707;28;20108;-71
2022/09/17 09:26:17;;;;;;;9.23;0.77;;;13.50;99.90;;;;;;5104482;28;20383;-71
2022/09/17 09:29:12;;;;;;;9.20;1.20;;;13.50;99.90;;;;;;5099038;28;20439;-70
2022/09/17 09:31:40;;;;;;;8.68;1.38;;;13.50;99.90;;;;;;5115000;28;20058;-71
2022/09/17 09:34:09;;;;;;;12.02;0.98;;;13.70;99.90;;;;;;5098968;28;20063;-72
2022/09/17 09:36:37;;;;;;;12.75;1.17;;;13.80;99.90;;;;;;5098535;28;20060;-72
2022/09/17 09:39:16;;;;;;;8.70;0.95;;;13.80;99.90;;;;;;5098793;28;20368;-71
2022/09/17 09:42:09;;;;;;;9.68;0.80;;;13.60;99.90;;;;;;5098791;28;20040;-71
2022/09/17 09:44:35;;;;;;;8.25;0.68;;;13.20;99.90;;;;;;5058335;28;20049;-72
2022/09/17 09:47:03;;;;;;;8.48;0.95;;;13.10;99.90;;;;;;5057803;28;20429;-71
2022/09/17 09:49:55;;;;;;;9.45;1.00;;;13.10;99.90;;;;;;5056904;28;20041;-71
2022/09/17 09:52:49;;;;;;;10.65;1.27;;;13.20;99.90;;;;;;5057761;28;20056;-71
2022/09/17 09:55:44;;;;;;;13.93;1.60;;;13.40;99.90;;;;;;5059236;28;20349;-71
2022/09/17 09:58:28;;;;;;;15.00;1.40;;;13.80;99.90;;;;;;5058395;28;20072;-73
2022/09/17 10:00:54;;;;;;;9.13;0.98;;;14.20;99.90;;;;;;5090759;28;20418;-72
2022/09/17 10:03:27;;;;;;;13.60;1.35;;;14.50;99.90;;;;;;5058339;28;20086;-73
2022/09/17 10:06:02;;;;;;;8.75;1.00;;;14.60;99.90;;;;;;5057145;28;20415;-72
2022/09/17 10:08:33;;;;;;;11.67;1.00;;;14.50;99.90;;;;;;5058387;28;20049;-72
2022/09/17 10:11:00;;;;;;;11.20;1.02;;;14.60;99.90;;;;;;5056704;28;20103;-72
2022/09/17 10:13:28;;;;;;;9.68;1.33;;;14.80;99.90;;;;;;5058255;28;20036;-73
2022/09/17 10:15:54;;;;;;;6.57;1.40;;;15.00;99.90;;;;;;5057986;28;20453;-70
2022/09/17 10:18:21;;;;;;;8.15;0.98;;;15.20;99.90;;;;;;5058049;28;20120;-72
2022/09/17 10:21:00;;;;;;;12.27;1.10;;;15.40;99.90;;;;;;5073744;28;20219;-72
2022/09/17 10:23:32;;;;;;;12.13;1.20;;;15.70;99.90;;;;;;5058097;28;20364;-72
2022/09/17 10:25:58;;;;;;;17.13;1.67;;;15.80;99.90;;;;;;5057927;28;20048;-73
2022/09/17 10:28:33;;;;;;;16.00;1.80;;;15.50;99.90;;;;;;5057485;28;20037;-72
2022/09/17 10:31:03;;;;;;;17.30;1.90;;;15.00;99.90;;;;;;5090237;28;20139;-73
2022/09/17 10:33:31;;;;;;;21.33;2.50;;;15.00;99.90;;;;;;5057981;28;20032;-72
2022/09/17 10:36:01;;;;;;;14.73;1.10;;;14.80;99.90;;;;;;5056611;28;20048;-72
2022/09/17 10:38:34;;;;;;;15.23;1.65;;;14.30;99.90;;;;;;5057683;28;20426;-70
2022/09/17 10:41:23;;;;;;;14.00;1.35;;;14.10;99.90;;;;;;5057015;28;20147;-71
2022/09/17 10:43:50;;;;;;;15.85;1.48;;;13.80;99.90;;;;;;5091411;28;20055;-71
2022/09/17 10:46:25;;;;;;;14.88;1.40;;;14.00;99.90;;;;;;5097615;28;20044;-71
2022/09/17 10:49:20;;;;;;;18.13;1.50;;;14.20;99.90;;;;;;5097767;28;20115;-71
2022/09/17 10:51:46;;;;;;;13.52;1.50;;;14.10;99.90;;;;;;5097836;28;20386;-69
2022/09/17 10:54:11;;;;;;;11.50;1.23;;;14.20;99.90;;;;;;5097933;28;20040;-72
2022/09/17 10:56:41;;;;;;;17.48;1.80;;;14.50;99.90;;;;;;5097728;28;20344;-73
2022/09/17 10:59:15;;;;;;;18.52;1.90;;;14.70;99.90;;;;;;5095627;28;20044;-73
2022/09/17 11:02:20;;;;;;;19.38;2.35;;;14.70;99.90;;;;;;5097457;28;20301;-71
2022/09/17 11:05:21;;;;;;;20.85;1.98;;;14.60;99.90;;;;;;5081533;28;20083;-68
2022/09/17 11:07:54;;;;;;;15.30;1.77;;;14.40;99.90;;;;;;5096082;28;20036;-69
2022/09/17 11:10:35;;;;;;;13.70;1.90;;;14.80;99.90;;;;;;5096938;28;20075;-69
2022/09/17 11:13:04;;;;;;;23.85;2.33;;;15.20;99.90;;;;;;5099726;28;20371;-68
2022/09/17 11:15:38;;;;;;;13.23;1.63;;;15.70;99.90;;;;;;5097226;28;20317;-71
2022/09/17 11:18:39;;;;;;;17.58;1.85;;;16.10;99.90;;;;;;5097242;28;20067;-70
2022/09/17 11:21:19;;;;;;;12.77;1.60;;;16.30;99.90;;;;;;5089465;28;20433;-69
2022/09/17 11:24:30;;;;;;;13.27;1.60;;;16.30;99.90;;;;;;5097104;28;20039;-68
2022/09/17 11:27:17;;;;;;;15.50;1.92;;;15.70;99.90;;;;;;5077587;28;20052;-68
2022/09/17 11:30:01;;;;;;;11.52;2.15;;;15.40;99.90;;;;;;5095806;28;20039;-69
2022/09/17 11:32:49;;;;;;;17.05;1.63;;;15.70;99.90;;;;;;5097079;28;20314;-69
2022/09/17 11:35:20;;;;;;;12.95;2.17;;;16.10;99.90;;;;;;5097143;28;20044;-68
2022/09/17 11:37:57;;;;;;;14.35;1.40;;;16.80;99.90;;;;;;5096900;28;20040;-70
2022/09/17 11:40:30;;;;;;;8.77;1.17;;;17.40;99.80;;;;;;5095373;28;20062;-68
2022/09/17 11:43:06;;;;;;;8.13;1.25;;;17.20;97.70;;;;;;5096564;28;20466;-69
2022/09/17 11:45:36;;;;;;;10.97;1.33;;;17.00;97.70;;;;;;5096686;28;20129;-69
2022/09/17 11:48:02;;;;;;;11.02;1.42;;;17.00;97.30;;;;;;5096707;28;20490;-69
2022/09/17 11:50:34;;;;;;;9.40;1.15;;;17.00;97.80;;;;;;5096567;28;20046;-69
2022/09/17 11:53:22;;;;;;;9.55;1.20;;;17.40;98.00;;;;;;5096727;28;20044;-69
2022/09/17 11:56:07;;;;;;;10.55;1.50;;;17.70;98.70;;;;;;5096493;28;20040;-70
2022/09/17 11:59:12;;;;;;;12.38;1.60;;;17.50;98.20;;;;;;5096771;28;20417;-70
2022/09/17 12:01:56;;;;;;;14.30;1.75;;;17.00;98.20;;;;;;5112367;28;20044;-69
2022/09/17 12:04:59;;;;;;;10.93;1.70;;;16.60;98.20;;;;;;5096694;28;20036;-69
2022/09/17 12:07:40;;;;;;;15.45;1.98;;;16.30;98.40;;;;;;5044400;28;20048;-69
2022/09/17 12:10:27;;;;;;;19.38;2.30;;;16.00;98.30;;;;;;5097473;28;20048;-69
2022/09/17 12:12:58;;;;;;;12.95;1.90;;;16.50;98.50;;;;;;5100825;28;20042;-74
2022/09/17 12:15:28;;;;;;;11.82;1.77;;;16.70;98.40;;;;;;5133692;27;20047;-71
2022/09/17 12:18:03;;;;;;;9.25;1.17;;;16.90;97.60;;;;;;5100796;28;20032;-71
2022/09/17 12:20:33;;;;;;;8.00;0.88;;;17.10;97.90;;;;;;5100606;28;20047;-71
2022/09/17 12:23:05;;;;;;;12.43;1.52;;;17.90;97.20;;;;;;5099248;28;20036;-71
2022/09/17 12:25:39;;;;;;;7.07;1.40;;;18.10;96.40;;;;;;5100699;28;20317;-71
2022/09/17 12:28:15;;;;;;;9.18;1.17;;;18.20;96.80;;;;;;5100401;28;20377;-71
2022/09/17 12:31:20;;;;;;;12.88;2.10;;;18.40;97.00;;;;;;5100428;28;20036;-71
2022/09/17 12:33:54;;;;;;;20.63;2.28;;;18.50;96.90;;;;;;5091353;28;20044;-71
2022/09/17 12:36:36;;;;;;;9.73;1.40;;;18.40;97.30;;;;;;5099415;28;20040;-71
2022/09/17 12:39:36;;;;;;;12.05;1.83;;;18.80;97.70;;;;;;5100330;28;20040;-71
2022/09/17 12:42:21;;;;;;;11.63;2.10;;;19.00;96.60;;;;;;5100167;28;20044;-71
2022/09/17 12:45:18;;;;;;;11.32;1.70;;;19.20;96.90;;;;;;5099933;28;20039;-71
2022/09/17 12:47:52;;;;;;;12.13;1.70;;;19.40;96.90;;;;;;5100108;28;20111;-72
2022/09/17 12:50:36;;;;;;;12.40;1.58;;;19.80;97.00;;;;;;5100128;28;20072;-71
2022/09/17 12:53:20;;;;;;;13.82;1.48;;;19.80;97.20;;;;;;5100072;28;20054;-71
2022/09/17 12:56:10;;;;;;;10.77;1.63;;;20.20;97.40;;;;;;5099975;28;20115;-71
2022/09/17 12:58:35;;;;;;;11.02;1.48;;;20.50;96.10;;;;;;5100247;28;20040;-71
2022/09/17 13:01:17;;;;;;;6.32;1.17;;;19.70;97.10;;;;;;5099844;28;20050;-71
2022/09/17 13:03:49;;;;;;;12.68;1.45;;;19.10;97.70;;;;;;5100024;28;20073;-71